Terminal Aerodrome Forecast
Issued by NWS Shreveport, LA

Current Version | Previous Version | Text Only | Print | Product List | Glossary On
Versions: 1 2 3 4 5 6 7 8 9 10 11 12 13 14 15 16 17 18 19 20 21 22
491
FTUS44 KSHV 192321
TAFLFK
TAF
KLFK 192321Z 2000/2024 15003KT P6SM SCT050 SCT250
      TEMPO 2007/2009 1SM BR BKN003
     FM200900 15003KT 1SM BR BKN003
      TEMPO 2009/2013 1/4SM FG VV001
     FM201300 15004KT 3SM BR OVC005
     FM201500 19007KT P6SM BKN015
     FM201700 19007KT P6SM BKN025
     FM201900 18007KT P6SM SCT035 SCT045=

USA.gov is the U.S. government's official web portal to all federal, state and local government web resources and services.